createdAt,value
2023-04-03T00:01:22.004Z,10.93
2023-04-03T00:03:52.869Z,11.05
2023-04-03T00:06:21.568Z,11.10
2023-04-03T00:08:49.980Z,11.13
2023-04-03T00:11:18.734Z,11.24
2023-04-03T00:13:47.629Z,11.26
2023-04-03T00:16:16.209Z,11.22
2023-04-03T00:18:44.838Z,11.17
2023-04-03T00:21:16.684Z,11.18
2023-04-03T00:23:45.181Z,11.23
2023-04-03T00:26:13.651Z,11.27
2023-04-03T00:28:42.219Z,11.17
2023-04-03T00:31:10.566Z,11.15
2023-04-03T00:33:39.140Z,11.15
2023-04-03T00:36:12.008Z,11.15
2023-04-03T00:38:41.980Z,11.15
2023-04-03T00:41:10.520Z,11.10
2023-04-03T00:43:39.257Z,11.10
2023-04-03T00:46:07.596Z,11.08
2023-04-03T00:48:38.716Z,11.15
2023-04-03T00:51:10.736Z,11.10
2023-04-03T00:53:45.738Z,11.07
2023-04-03T00:56:18.349Z,11.06
2023-04-03T00:58:51.158Z,10.98
2023-04-03T01:01:23.232Z,10.98
2023-04-03T01:03:52.363Z,10.98
2023-04-03T01:06:28.524Z,11.03
2023-04-03T01:08:58.843Z,11.06
2023-04-03T01:11:27.880Z,11.18
2023-04-03T01:13:56.237Z,11.25
2023-04-03T01:16:24.926Z,11.28
2023-04-03T01:18:53.355Z,11.31
2023-04-03T01:22:05.387Z,11.39
2023-04-03T01:24:37.513Z,11.36
2023-04-03T01:27:08.263Z,11.38
2023-04-03T01:29:37.207Z,11.42
2023-04-03T01:32:07.368Z,11.43
2023-04-03T01:34:35.725Z,11.36
2023-04-03T01:37:04.120Z,11.31
2023-04-03T01:39:32.895Z,11.39
2023-04-03T01:42:01.625Z,11.31
2023-04-03T01:44:30.022Z,11.36
2023-04-03T01:46:58.540Z,11.38
2023-04-03T01:49:28.638Z,11.36
2023-04-03T01:51:57.054Z,11.43
2023-04-03T01:54:25.601Z,11.31
2023-04-03T01:56:53.991Z,11.23
2023-04-03T01:59:22.385Z,11.23
2023-04-03T02:01:50.922Z,11.27
2023-04-03T02:04:19.371Z,11.15
2023-04-03T02:06:49.285Z,11.04
2023-04-03T02:09:17.732Z,10.92
2023-04-03T02:11:46.169Z,10.89
2023-04-03T02:14:14.484Z,10.85
2023-04-03T02:16:42.863Z,10.79
2023-04-03T02:19:11.291Z,10.76
2023-04-03T02:21:39.626Z,10.76
2023-04-03T02:24:10.962Z,10.77
2023-04-03T02:26:39.318Z,10.80
2023-04-03T02:29:07.629Z,10.82
2023-04-03T02:31:36.005Z,10.81
2023-04-03T02:34:04.385Z,10.86
2023-04-03T02:36:33.018Z,10.84
2023-04-03T02:39:01.510Z,10.79
2023-04-03T02:41:36.044Z,10.85
2023-04-03T02:44:05.508Z,10.96
2023-04-03T02:46:34.186Z,10.98
2023-04-03T02:49:02.708Z,11.00
2023-04-03T02:51:31.281Z,11.01
2023-04-03T02:53:59.709Z,10.94
2023-04-03T02:56:28.292Z,10.85
2023-04-03T02:58:58.136Z,10.67
2023-04-03T03:01:28.173Z,10.55
2023-04-03T03:03:57.058Z,10.50
2023-04-03T03:06:25.669Z,10.43
2023-04-03T03:08:54.220Z,10.36
2023-04-03T03:11:22.583Z,10.29
2023-04-03T03:13:50.965Z,10.26
2023-04-03T03:16:21.071Z,10.13
2023-04-03T03:18:49.591Z,10.00
2023-04-03T03:21:18.073Z,9.94
2023-04-03T03:23:46.570Z,10.04
2023-04-03T03:26:15.336Z,10.04
2023-04-03T03:28:44.217Z,10.01
2023-04-03T03:31:13.442Z,9.94
2023-04-03T03:33:43.399Z,9.91
2023-04-03T03:36:11.945Z,9.84
2023-04-03T03:38:40.372Z,9.86
2023-04-03T03:41:08.672Z,9.83
2023-04-03T03:43:37.129Z,9.83
2023-04-03T03:46:06.803Z,9.76
2023-04-03T03:48:35.080Z,9.76
2023-04-03T03:51:05.578Z,9.76
2023-04-03T03:53:33.941Z,9.81
2023-04-03T03:56:02.463Z,9.87
2023-04-03T03:58:30.869Z,9.90
2023-04-03T04:00:59.275Z,9.93
2023-04-03T04:03:27.611Z,9.93
2023-04-03T04:05:56.148Z,10.13
2023-04-03T04:08:26.529Z,10.65
2023-04-03T04:10:55.229Z,10.95
2023-04-03T04:13:23.871Z,11.27
2023-04-03T04:15:52.319Z,11.32
2023-04-03T04:18:21.302Z,11.19
2023-04-03T04:20:49.641Z,11.27
2023-04-03T04:23:19.895Z,11.13
2023-04-03T04:25:50.405Z,11.03
2023-04-03T04:28:18.815Z,11.35
2023-04-03T04:30:47.797Z,11.46
2023-04-03T04:33:16.169Z,11.41
2023-04-03T04:35:45.628Z,11.16
2023-04-03T04:38:14.219Z,11.21
2023-04-03T04:40:42.625Z,11.21
2023-04-03T04:43:15.562Z,11.08
2023-04-03T04:45:44.096Z,11.14
2023-04-03T04:48:12.762Z,11.00
2023-04-03T04:50:41.220Z,10.87
2023-04-03T04:53:09.683Z,10.86
2023-04-03T04:55:38.287Z,10.94
2023-04-03T04:58:07.059Z,10.93
2023-04-03T05:00:36.844Z,10.89
2023-04-03T05:03:05.453Z,11.01
2023-04-03T05:05:34.341Z,11.05
2023-04-03T05:08:02.626Z,11.04
2023-04-03T05:10:31.184Z,11.04
2023-04-03T05:12:59.829Z,11.17
2023-04-03T05:15:28.321Z,11.11
2023-04-03T05:17:58.245Z,11.13
2023-04-03T05:20:26.573Z,11.05
2023-04-03T05:22:55.083Z,11.03
2023-04-03T05:25:23.536Z,11.13
2023-04-03T05:27:55.494Z,11.47
2023-04-03T05:30:24.119Z,11.45
2023-04-03T05:32:52.651Z,11.62
2023-04-03T05:35:22.748Z,11.81
2023-04-03T05:37:51.283Z,11.97
2023-04-03T05:40:20.033Z,12.17
2023-04-03T05:42:48.447Z,12.53
2023-04-03T05:45:16.897Z,12.66
2023-04-03T05:47:45.296Z,13.25
2023-04-03T05:50:14.114Z,14.05
2023-04-03T05:52:48.016Z,14.74
2023-04-03T05:55:16.634Z,15.14
2023-04-03T05:57:45.201Z,16.18
2023-04-03T06:00:16.706Z,15.57
2023-04-03T06:02:45.781Z,15.36
2023-04-03T06:05:14.295Z,15.54
2023-04-03T06:07:44.711Z,15.93
2023-04-03T06:10:14.673Z,17.32
2023-04-03T06:12:43.174Z,17.36
2023-04-03T06:15:12.918Z,17.28
2023-04-03T06:17:41.231Z,18.39
2023-04-03T06:20:10.518Z,18.42
2023-04-03T06:22:39.006Z,17.61
2023-04-03T06:25:10.473Z,17.08
2023-04-03T06:27:38.843Z,17.65
2023-04-03T06:30:08.848Z,18.08
2023-04-03T06:32:37.221Z,18.07
2023-04-03T06:35:06.286Z,18.71
2023-04-03T06:37:35.725Z,19.83
2023-04-03T06:40:05.368Z,20.10
2023-04-03T06:42:35.180Z,19.70
2023-04-03T06:45:03.672Z,19.71
2023-04-03T06:47:32.056Z,19.70
2023-04-03T06:50:00.400Z,20.12
2023-04-03T06:52:28.781Z,20.51
2023-04-03T06:54:58.770Z,19.27
2023-04-03T06:57:27.553Z,18.70
2023-04-03T06:59:57.651Z,19.61
2023-04-03T07:02:26.270Z,18.56
2023-04-03T07:04:54.993Z,18.02
2023-04-03T07:07:23.481Z,18.85
2023-04-03T07:09:52.271Z,17.91
2023-04-03T07:12:21.821Z,18.08
2023-04-03T07:14:50.395Z,17.91
2023-04-03T07:17:20.284Z,17.07
2023-04-03T07:19:48.605Z,16.60
2023-04-03T07:22:17.169Z,16.49
2023-04-03T07:24:45.624Z,16.08
2023-04-03T07:27:13.957Z,16.22
2023-04-03T07:29:42.659Z,15.76
2023-04-03T07:32:11.188Z,15.21
2023-04-03T07:34:41.149Z,15.25
2023-04-03T07:37:10.100Z,15.26
2023-04-03T07:39:38.411Z,15.54
2023-04-03T07:42:07.004Z,15.81
2023-04-03T07:44:36.568Z,15.75
2023-04-03T07:47:04.949Z,15.07
2023-04-03T07:49:34.169Z,15.58
2023-04-03T07:52:04.621Z,15.38
2023-04-03T07:54:32.943Z,15.66
2023-04-03T07:57:01.701Z,16.17
2023-04-03T07:59:30.291Z,16.37
2023-04-03T08:01:59.670Z,16.01
2023-04-03T08:04:28.480Z,15.73
2023-04-03T08:06:56.994Z,15.84
2023-04-03T08:09:26.852Z,16.57
2023-04-03T08:11:56.317Z,16.23
2023-04-03T08:14:24.767Z,16.29
2023-04-03T08:16:53.201Z,15.86
2023-04-03T08:19:25.963Z,16.17
2023-04-03T08:21:55.683Z,15.99
2023-04-03T08:24:24.191Z,16.15
2023-04-03T08:26:53.957Z,15.23
2023-04-03T08:29:23.040Z,15.79
2023-04-03T08:31:52.038Z,15.30
2023-04-03T08:34:21.394Z,15.72
2023-04-03T08:36:49.912Z,15.95
2023-04-03T08:39:19.307Z,15.81
2023-04-03T08:41:48.967Z,15.53
2023-04-03T08:44:26.722Z,15.42
2023-04-03T08:47:12.151Z,14.66
2023-04-03T08:49:48.487Z,15.28
2023-04-03T08:52:21.472Z,15.08
2023-04-03T08:54:56.392Z,15.19
2023-04-03T08:57:31.949Z,15.36
2023-04-03T09:00:05.730Z,15.50
2023-04-03T09:02:37.397Z,15.31
2023-04-03T09:05:15.011Z,15.45
2023-04-03T09:07:50.072Z,15.95
2023-04-03T09:10:25.719Z,15.68
2023-04-03T09:13:02.630Z,14.98
2023-04-03T09:15:38.952Z,15.23
2023-04-03T09:18:17.962Z,15.35
2023-04-03T09:20:52.739Z,15.10
2023-04-03T09:23:27.218Z,15.32
2023-04-03T09:26:04.863Z,15.68
2023-04-03T09:28:48.920Z,15.05
2023-04-03T09:31:26.121Z,14.49
2023-04-03T09:33:59.394Z,14.17
2023-04-03T09:36:42.238Z,13.65
2023-04-03T09:39:15.684Z,13.41
2023-04-03T09:41:45.253Z,13.41
2023-04-03T09:44:27.183Z,13.41
2023-04-03T09:46:57.026Z,13.36
2023-04-03T09:49:25.821Z,13.58
2023-04-03T09:51:54.845Z,13.94
2023-04-03T09:54:37.142Z,13.16
2023-04-03T09:57:11.352Z,12.95
2023-04-03T09:59:47.945Z,13.44
2023-04-03T10:02:40.375Z,12.92
2023-04-03T10:05:30.817Z,13.21
2023-04-03T10:08:24.550Z,12.62
2023-04-03T10:11:12.820Z,13.26
2023-04-03T10:13:56.253Z,13.08
2023-04-03T10:16:35.115Z,13.02
2023-04-03T10:19:24.496Z,13.27
2023-04-03T10:21:58.545Z,13.35
2023-04-03T10:24:33.070Z,13.49
2023-04-03T10:27:10.716Z,13.44
2023-04-03T10:29:49.446Z,13.06
2023-04-03T10:32:49.197Z,12.85
2023-04-03T10:35:29.811Z,13.16
2023-04-03T10:38:07.492Z,13.24
2023-04-03T10:40:48.389Z,13.13
2023-04-03T10:43:24.301Z,12.83
2023-04-03T10:46:02.576Z,13.12
2023-04-03T10:48:51.542Z,12.53
2023-04-03T10:51:28.547Z,12.67
2023-04-03T10:54:03.254Z,12.50
2023-04-03T10:56:39.726Z,12.83
2023-04-03T10:59:25.856Z,12.57
2023-04-03T11:01:58.322Z,12.70
2023-04-03T11:04:30.110Z,12.69
2023-04-03T11:07:04.362Z,12.54
2023-04-03T11:09:38.634Z,12.71
2023-04-03T11:12:12.236Z,12.85
2023-04-03T11:14:41.393Z,12.29
2023-04-03T11:17:18.923Z,11.84
2023-04-03T11:19:53.732Z,11.85
2023-04-03T11:22:29.410Z,11.86
2023-04-03T11:25:08.743Z,11.79
2023-04-03T11:27:44.767Z,11.91
2023-04-03T11:30:22.005Z,12.00
2023-04-03T11:33:17.425Z,11.97
2023-04-03T11:35:48.245Z,12.12
2023-04-03T11:38:27.256Z,12.18
2023-04-03T11:40:58.093Z,12.59
2023-04-03T11:43:28.617Z,12.83
2023-04-03T11:46:02.073Z,12.07
2023-04-03T11:48:54.340Z,12.23
2023-04-03T11:51:52.507Z,12.11
2023-04-03T11:54:48.905Z,12.07
2023-04-03T11:57:49.726Z,11.72
2023-04-03T12:00:51.618Z,11.92
2023-04-03T12:04:00.931Z,11.91
2023-04-03T12:07:11.334Z,11.86
2023-04-03T12:10:30.445Z,11.51
2023-04-03T12:13:03.694Z,11.68
2023-04-03T12:15:54.911Z,11.63
2023-04-03T12:19:01.330Z,12.00
2023-04-03T12:22:23.002Z,11.57
2023-04-03T12:24:53.211Z,11.37
2023-04-03T12:27:30.422Z,11.72
2023-04-03T12:30:14.783Z,11.27
2023-04-03T12:33:11.968Z,11.58
2023-04-03T12:35:51.014Z,11.32
2023-04-03T12:38:50.201Z,11.16
2023-04-03T12:41:27.988Z,11.31
2023-04-03T12:44:11.774Z,11.06
2023-04-03T12:46:44.786Z,10.73
2023-04-03T12:49:33.529Z,11.07
2023-04-03T12:52:02.400Z,11.38
2023-04-03T12:54:37.471Z,11.31
2023-04-03T12:57:13.296Z,11.28
2023-04-03T12:59:44.929Z,11.00
2023-04-03T13:02:24.511Z,10.97
2023-04-03T13:04:53.732Z,11.21
2023-04-03T13:07:26.774Z,11.31
2023-04-03T13:10:00.196Z,10.80
2023-04-03T13:12:30.173Z,10.75
2023-04-03T13:15:05.421Z,10.85
2023-04-03T13:17:35.231Z,10.63
2023-04-03T13:20:15.870Z,10.65
2023-04-03T13:22:52.320Z,10.85
2023-04-03T13:25:24.037Z,10.64
2023-04-03T13:28:03.147Z,10.70
2023-04-03T13:30:42.157Z,10.58
2023-04-03T13:33:23.206Z,10.48
2023-04-03T13:35:59.272Z,10.00
2023-04-03T13:38:32.468Z,10.03
2023-04-03T13:41:03.785Z,10.05
2023-04-03T13:43:34.070Z,10.03
2023-04-03T13:46:08.552Z,9.85
2023-04-03T13:48:43.090Z,9.99
2023-04-03T13:51:23.250Z,9.93
2023-04-03T13:53:55.430Z,9.96
2023-04-03T13:56:32.148Z,9.77
2023-04-03T13:59:08.230Z,9.60
2023-04-03T14:01:46.198Z,9.50
2023-04-03T14:04:19.484Z,9.66
2023-04-03T14:06:48.473Z,9.87
2023-04-03T14:09:18.489Z,9.50
2023-04-03T14:11:47.540Z,9.51
2023-04-03T14:14:19.009Z,9.43
2023-04-03T14:16:53.638Z,9.51
2023-04-03T14:19:25.231Z,9.36
2023-04-03T14:21:54.963Z,9.38
2023-04-03T14:24:24.292Z,9.43
2023-04-03T14:26:54.230Z,9.51
2023-04-03T14:29:23.585Z,9.30
2023-04-03T14:32:03.669Z,9.28
2023-04-03T14:34:40.307Z,9.38
2023-04-03T14:37:13.481Z,9.46
2023-04-03T14:39:42.535Z,9.40
2023-04-03T14:42:15.129Z,9.32
2023-04-03T14:44:43.748Z,9.25
2023-04-03T14:47:29.622Z,9.35
2023-04-03T14:49:59.789Z,9.20
2023-04-03T14:52:30.749Z,9.19
2023-04-03T14:54:59.831Z,9.28
2023-04-03T14:57:30.524Z,9.26
2023-04-03T14:59:59.333Z,9.18
2023-04-03T15:02:31.780Z,9.12
2023-04-03T15:05:01.930Z,9.14
2023-04-03T15:07:32.630Z,9.17
2023-04-03T15:10:02.630Z,9.29
2023-04-03T15:12:31.033Z,9.30
2023-04-03T15:15:02.060Z,9.29
2023-04-03T15:17:59.089Z,9.27
2023-04-03T15:20:31.690Z,9.28
2023-04-03T15:23:02.236Z,9.31
2023-04-03T15:25:30.889Z,9.26
2023-04-03T15:28:00.094Z,9.27
2023-04-03T15:30:28.626Z,9.32
2023-04-03T15:32:59.703Z,9.31
2023-04-03T15:35:28.154Z,9.37
2023-04-03T15:37:56.533Z,9.24
2023-04-03T15:40:25.691Z,9.16
2023-04-03T15:42:54.553Z,9.22
2023-04-03T15:45:23.449Z,9.22
2023-04-03T15:47:52.100Z,9.19
2023-04-03T15:50:24.262Z,9.16
2023-04-03T15:52:55.508Z,9.29
2023-04-03T15:55:24.842Z,9.27
2023-04-03T15:57:54.558Z,9.33
2023-04-03T16:00:24.705Z,9.43
2023-04-03T16:02:55.666Z,9.34
2023-04-03T16:05:26.623Z,9.42
2023-04-03T16:07:56.353Z,9.31
2023-04-03T16:10:25.048Z,9.27
2023-04-03T16:12:53.705Z,9.28
2023-04-03T16:15:22.438Z,9.34
2023-04-03T16:17:51.302Z,9.44
2023-04-03T16:20:22.639Z,9.53
2023-04-03T16:22:52.877Z,9.57
2023-04-03T16:25:22.240Z,9.63
2023-04-03T16:27:51.445Z,9.65
2023-04-03T16:30:20.235Z,9.73
2023-04-03T16:32:49.213Z,9.78
2023-04-03T16:35:17.810Z,9.80
2023-04-03T16:37:46.283Z,9.84
2023-04-03T16:40:16.810Z,9.86
2023-04-03T16:42:45.320Z,9.92
2023-04-03T16:45:13.801Z,9.89
2023-04-03T16:47:42.571Z,9.85
2023-04-03T16:50:12.437Z,9.80
2023-04-03T16:52:40.989Z,9.80
2023-04-03T16:55:10.538Z,9.76
2023-04-03T16:57:41.219Z,9.78
2023-04-03T17:00:11.085Z,9.65
2023-04-03T17:02:39.579Z,9.67
2023-04-03T17:05:08.874Z,9.64
2023-04-03T17:07:37.299Z,9.60
2023-04-03T17:10:06.394Z,9.58
2023-04-03T17:12:35.370Z,9.57
2023-04-03T17:15:05.794Z,9.58
2023-04-03T17:17:34.263Z,9.52
2023-04-03T17:20:03.477Z,9.57
2023-04-03T17:22:33.205Z,9.53
2023-04-03T17:25:01.708Z,9.48
2023-04-03T17:27:30.074Z,9.47
2023-04-03T17:29:58.752Z,9.45
2023-04-03T17:32:28.586Z,9.33
2023-04-03T17:34:57.428Z,9.39
2023-04-03T17:37:26.147Z,9.35
2023-04-03T17:39:54.756Z,9.31
2023-04-03T17:42:23.311Z,9.31
2023-04-03T17:44:52.086Z,9.32
2023-04-03T17:47:20.570Z,9.19
2023-04-03T17:49:51.640Z,9.15
2023-04-03T17:52:20.205Z,9.09
2023-04-03T17:54:48.682Z,9.05
2023-04-03T17:57:17.202Z,9.07
2023-04-03T17:59:45.597Z,9.04
2023-04-03T18:02:14.066Z,8.95
2023-04-03T18:04:42.397Z,9.03
2023-04-03T18:07:12.365Z,8.95
2023-04-03T18:09:42.253Z,8.92
2023-04-03T18:12:11.437Z,8.85
2023-04-03T18:14:41.914Z,8.87
2023-04-03T18:17:11.135Z,8.86
2023-04-03T18:19:39.685Z,8.90
2023-04-03T18:22:14.301Z,8.75
2023-04-03T18:24:44.157Z,8.85
2023-04-03T18:27:16.192Z,8.72
2023-04-03T18:29:47.674Z,8.67
2023-04-03T18:32:19.311Z,8.63
2023-04-03T18:34:49.445Z,8.55
2023-04-03T18:37:21.047Z,8.48
2023-04-03T18:39:49.686Z,8.41
2023-04-03T18:42:21.496Z,8.36
2023-04-03T18:44:52.748Z,8.33
2023-04-03T18:47:21.231Z,8.37
2023-04-03T18:49:50.009Z,8.37
2023-04-03T18:52:20.624Z,8.33
2023-04-03T18:54:49.120Z,8.32
2023-04-03T18:57:17.704Z,8.31
2023-04-03T18:59:46.514Z,8.34
2023-04-03T19:02:16.840Z,8.42
2023-04-03T19:04:46.818Z,8.46
2023-04-03T19:07:15.849Z,8.46
2023-04-03T19:09:45.784Z,8.47
2023-04-03T19:12:14.174Z,8.46
2023-04-03T19:14:42.886Z,8.51
2023-04-03T19:17:11.414Z,8.55
2023-04-03T19:19:39.968Z,8.57
2023-04-03T19:22:08.627Z,8.61
2023-04-03T19:24:37.394Z,8.65
2023-04-03T19:27:07.621Z,8.66
2023-04-03T19:29:36.155Z,8.70
2023-04-03T19:32:04.539Z,8.71
2023-04-03T19:34:33.044Z,8.80
2023-04-03T19:37:02.569Z,8.76
2023-04-03T19:39:35.262Z,8.67
2023-04-03T19:42:04.890Z,8.54
2023-04-03T19:44:37.565Z,8.48
2023-04-03T19:47:07.079Z,8.34
2023-04-03T19:49:35.455Z,8.27
2023-04-03T19:52:03.912Z,8.25
2023-04-03T19:54:32.277Z,8.28
2023-04-03T19:57:00.601Z,8.27
2023-04-03T19:59:29.244Z,8.31
2023-04-03T20:01:59.965Z,8.28
2023-04-03T20:04:28.432Z,8.30
2023-04-03T20:06:57.190Z,8.33
2023-04-03T20:09:27.321Z,8.32
2023-04-03T20:11:56.792Z,8.34
2023-04-03T20:14:25.153Z,8.35
2023-04-03T20:16:53.582Z,8.31
2023-04-03T20:19:28.858Z,8.29
2023-04-03T20:21:58.618Z,8.24
2023-04-03T20:24:28.948Z,8.23
2023-04-03T20:26:58.011Z,8.21
2023-04-03T20:29:27.508Z,8.19
2023-04-03T20:31:56.157Z,8.19
2023-04-03T20:34:26.836Z,8.14
2023-04-03T20:36:55.618Z,8.18
2023-04-03T20:39:24.338Z,8.20
2023-04-03T20:41:52.924Z,8.19
2023-04-03T20:44:21.914Z,8.18
2023-04-03T20:46:53.352Z,8.18
2023-04-03T20:49:23.368Z,8.19
2023-04-03T20:51:54.267Z,8.15
2023-04-03T20:54:22.610Z,8.15
2023-04-03T20:56:51.551Z,8.07
2023-04-03T20:59:20.627Z,8.04
2023-04-03T21:01:49.178Z,8.02
2023-04-03T21:04:21.655Z,8.03
2023-04-03T21:07:27.588Z,8.04
2023-04-03T21:10:32.960Z,8.02
2023-04-03T21:13:38.198Z,8.05
2023-04-03T21:16:06.153Z,8.04
2023-04-03T21:18:55.571Z,8.08
2023-04-03T21:21:26.246Z,8.09
2023-04-03T21:23:55.846Z,8.07
2023-04-03T21:26:28.053Z,8.09
2023-04-03T21:28:57.196Z,8.14
2023-04-03T21:31:26.351Z,8.10
2023-04-03T21:33:56.530Z,8.09
2023-04-03T21:36:26.810Z,8.09
2023-04-03T21:39:00.744Z,8.04
2023-04-03T21:41:33.136Z,8.04
2023-04-03T21:44:04.784Z,7.99
2023-04-03T21:46:38.047Z,7.95
2023-04-03T21:49:10.718Z,8.00
2023-04-03T21:51:42.792Z,7.98
2023-04-03T21:54:15.941Z,8.04
2023-04-03T21:56:45.847Z,7.99
2023-04-03T21:59:16.902Z,7.96
2023-04-03T22:01:52.025Z,7.97
2023-04-03T22:04:26.363Z,7.94
2023-04-03T22:06:58.045Z,7.91
2023-04-03T22:09:28.478Z,7.91
2023-04-03T22:11:57.726Z,7.91
2023-04-03T22:14:27.029Z,7.89
2023-04-03T22:16:57.572Z,7.91
2023-04-03T22:19:29.358Z,7.88
2023-04-03T22:22:00.377Z,7.90
2023-04-03T22:24:29.056Z,7.90
2023-04-03T22:26:59.127Z,7.89
2023-04-03T22:29:30.072Z,7.90
2023-04-03T22:32:00.281Z,7.88
2023-04-03T22:34:31.598Z,7.88
2023-04-03T22:37:01.841Z,7.89
2023-04-03T22:39:31.065Z,7.87
2023-04-03T22:42:02.012Z,7.86
2023-04-03T22:44:36.495Z,7.89
2023-04-03T22:47:06.647Z,7.93
2023-04-03T22:49:38.700Z,8.01
2023-04-03T22:52:08.817Z,7.94
2023-04-03T22:54:38.591Z,7.94
2023-04-03T22:57:07.818Z,7.94
2023-04-03T22:59:36.947Z,7.95
2023-04-03T23:02:06.603Z,7.96
2023-04-03T23:04:41.375Z,7.99
2023-04-03T23:07:10.180Z,7.92
2023-04-03T23:09:38.867Z,7.93
2023-04-03T23:12:10.736Z,7.93
2023-04-03T23:14:39.890Z,7.92
2023-04-03T23:17:08.948Z,7.89
2023-04-03T23:19:41.934Z,7.90
2023-04-03T23:22:15.232Z,7.91
2023-04-03T23:24:45.821Z,7.91
2023-04-03T23:27:16.760Z,7.91
2023-04-03T23:29:50.288Z,7.88
2023-04-03T23:32:21.753Z,7.92
2023-04-03T23:34:53.244Z,7.92
2023-04-03T23:37:25.089Z,7.88
2023-04-03T23:39:55.118Z,7.94
2023-04-03T23:42:26.576Z,7.89
2023-04-03T23:44:58.875Z,7.90
2023-04-03T23:47:28.866Z,7.91
2023-04-03T23:49:58.642Z,7.87
2023-04-03T23:52:26.946Z,7.89
2023-04-03T23:54:55.286Z,7.86
2023-04-03T23:57:23.769Z,7.90
2023-04-03T23:59:52.254Z,7.87
